Time;durP1;ratioP1;P1;durP2;ratioP2;P2;SDS_P1;SDS_P2;PMS_P1;PMS_P2;Temp;Humidity;BMP_temperature;BMP_pressure;BME280_temperature;BME280_humidity;BME280_pressure;Samples;Min_cycle;Max_cycle;Signal;HPM_P1;HPM_P2
2021/01/19 00:00:13;;;;;;;;;;;9.50;99.90;;;8.94;100.00;101662.84;5072143;28;19924;-63
2021/01/19 00:02:41;;;;;;;;;;;9.50;99.90;;;8.99;100.00;101662.91;5071917;28;19932;-64
2021/01/19 00:05:10;;;;;;;;;;;9.60;99.90;;;8.85;100.00;101659.00;5072687;28;19924;-63
2021/01/19 00:07:37;;;;;;;;;;;9.50;99.90;;;8.56;100.00;101651.22;5071868;28;19978;-63
2021/01/19 00:10:06;;;;;;;;;;;9.20;99.90;;;8.52;100.00;101658.19;5071314;28;19921;-64
2021/01/19 00:12:33;;;;;;;;;;;9.10;99.90;;;8.59;100.00;101657.97;5071589;28;19928;-64
2021/01/19 00:15:00;;;;;;;;;;;9.20;99.90;;;8.50;100.00;101654.13;5072481;28;19924;-64
2021/01/19 00:17:27;;;;;;;;;;;9.10;99.90;;;8.55;100.00;101646.06;5071817;28;19924;-64
2021/01/19 00:19:54;;;;;;;;;;;9.10;99.90;;;8.56;100.00;101650.41;5072014;28;19925;-64
2021/01/19 00:22:22;;;;;;;;;;;9.10;99.90;;;8.49;100.00;101647.91;5071448;28;19924;-63
2021/01/19 00:24:50;;;;;;;;;;;9.00;99.90;;;8.48;100.00;101662.44;5072275;28;19929;-63
2021/01/19 00:27:17;;;;;;;;;;;9.00;99.90;;;8.54;100.00;101655.25;5071872;28;19936;-64
2021/01/19 00:29:44;;;;;;;;;;;9.00;99.90;;;8.44;100.00;101647.88;5071902;28;20034;-63
2021/01/19 00:32:11;;;;;;;;;;;9.00;99.90;;;8.38;100.00;101651.59;5071475;28;19924;-63
2021/01/19 00:34:38;;;;;;;;;;;8.90;99.90;;;8.33;100.00;101654.22;5072089;28;19933;-64
2021/01/19 00:37:06;;;;;;;;;;;8.90;99.90;;;8.27;100.00;101657.91;5071679;28;19932;-64
2021/01/19 00:39:34;;;;;;;;;;;8.80;99.90;;;8.21;100.00;101658.91;5071836;28;19924;-64
2021/01/19 00:42:01;;;;;;;;;;;8.80;99.90;;;8.31;100.00;101661.75;5071384;28;19931;-64
2021/01/19 00:44:28;;;;;;;;;;;8.80;99.90;;;8.43;100.00;101664.28;5072030;28;19978;-63
2021/01/19 00:46:55;;;;;;;;;;;9.00;99.90;;;8.46;100.00;101667.28;5071640;28;19932;-64
2021/01/19 00:49:22;;;;;;;;;;;9.00;99.90;;;8.51;100.00;101663.84;5071672;28;19958;-63
2021/01/19 00:51:49;;;;;;;;;;;9.10;99.90;;;8.47;100.00;101665.41;5071079;28;19929;-64
2021/01/19 00:54:17;;;;;;;;;;;9.00;99.90;;;8.45;100.00;101654.88;5072026;28;19925;-63
2021/01/19 00:56:45;;;;;;;;;;;9.00;99.90;;;8.46;100.00;101659.22;5071612;28;19925;-64
2021/01/19 00:59:12;;;;;;;;;;;9.00;99.90;;;8.43;100.00;101654.31;5071881;28;19931;-63
2021/01/19 01:01:45;;;;;;;;;;;9.00;99.90;;;8.45;100.00;101660.25;5070997;28;19924;-64
2021/01/19 01:04:12;;;;;;;;;;;9.00;99.90;;;8.48;100.00;101648.97;5071798;28;19929;-63
2021/01/19 01:06:39;;;;;;;;;;;9.00;99.90;;;8.53;100.00;101646.34;5071587;28;20268;-63
2021/01/19 01:09:07;;;;;;;;;;;9.10;99.90;;;8.63;100.00;101634.84;5071866;28;20379;-64
2021/01/19 01:11:42;;;;;;;;;;;9.20;99.90;;;8.70;100.00;101638.13;5070957;28;19924;-64
2021/01/19 01:14:12;;;;;;;;;;;9.20;99.90;;;8.76;100.00;101639.78;5071649;28;19924;-63
2021/01/19 01:16:40;;;;;;;;;;;9.30;99.90;;;8.79;100.00;101628.47;5071690;28;19928;-63
2021/01/19 01:19:08;;;;;;;;;;;9.30;99.90;;;8.94;100.00;101623.19;5071808;28;19925;-63
2021/01/19 01:21:36;;;;;;;;;;;9.50;99.90;;;9.08;100.00;101604.69;5072231;28;20302;-64
2021/01/19 01:24:04;;;;;;;;;;;9.60;99.90;;;9.24;100.00;101601.00;5075208;28;19931;-64
2021/01/19 01:26:32;;;;;;;;;;;9.70;99.90;;;9.33;100.00;101591.34;5074856;28;19931;-64
2021/01/19 01:28:59;;;;;;;;;;;9.90;99.90;;;9.38;100.00;101596.75;5075305;28;19925;-63
2021/01/19 01:31:27;;;;;;;;;;;9.90;99.90;;;9.43;100.00;101588.66;5074305;28;20391;-64
2021/01/19 01:33:54;;;;;;;;;;;10.00;99.90;;;9.45;100.00;101589.25;5074995;28;19932;-64
2021/01/19 01:36:21;;;;;;;;;;;10.00;99.90;;;9.52;100.00;101587.09;5074782;28;20383;-64
2021/01/19 01:38:49;;;;;;;;;;;10.00;99.90;;;9.55;100.00;101580.34;5075140;28;19925;-64
2021/01/19 01:41:16;;;;;;;;;;;10.10;99.90;;;9.50;100.00;101578.47;5074168;28;20287;-64
2021/01/19 01:43:44;;;;;;;;;;;10.10;99.90;;;9.49;100.00;101573.31;5074432;28;19925;-63
2021/01/19 01:46:12;;;;;;;;;;;10.00;99.90;;;9.50;100.00;101580.34;5074553;28;19931;-64
2021/01/19 01:48:41;;;;;;;;;;;10.10;99.90;;;9.47;100.00;101573.59;5075112;28;19925;-63
2021/01/19 01:51:09;;;;;;;;;;;10.00;99.90;;;9.42;100.00;101580.84;5074004;28;19932;-64
2021/01/19 01:53:38;;;;;;;;;;;10.00;99.90;;;9.33;100.00;101584.03;5074453;28;19924;-64
2021/01/19 01:56:06;;;;;;;;;;;9.90;99.90;;;9.34;100.00;101576.75;5074294;28;19932;-64
2021/01/19 01:58:34;;;;;;;;;;;9.90;99.90;;;9.29;100.00;101577.56;5074661;28;19924;-64
2021/01/19 02:01:03;;;;;;;;;;;9.90;99.90;;;9.26;100.00;101572.69;5073898;28;19932;-64
2021/01/19 02:03:30;;;;;;;;;;;9.80;99.90;;;9.19;100.00;101573.97;5074194;28;19925;-64
2021/01/19 02:05:58;;;;;;;;;;;9.80;99.90;;;9.15;100.00;101567.50;5074547;28;19936;-63
2021/01/19 02:08:34;;;;;;;;;;;9.70;99.90;;;9.14;100.00;101555.91;5074151;28;20342;-63
2021/01/19 02:11:15;;;;;;;;;;;9.70;99.90;;;9.06;100.00;101556.38;5073746;28;19924;-63
2021/01/19 02:13:54;;;;;;;;;;;9.60;99.90;;;9.05;100.00;101564.75;5074030;28;19931;-64
2021/01/19 02:16:31;;;;;;;;;;;9.60;99.90;;;9.02;100.00;101567.97;5073919;28;19928;-63
2021/01/19 02:19:06;;;;;;;;;;;9.60;99.90;;;9.05;100.00;101556.66;5074243;28;19983;-63
2021/01/19 02:21:48;;;;;;;;;;;9.60;99.90;;;9.06;100.00;101556.38;5073459;28;20366;-63
2021/01/19 02:24:21;;;;;;;;;;;9.70;99.90;;;9.12;100.00;101562.63;5074118;28;19924;-63
2021/01/19 02:27:15;;;;;;;;;;;9.70;99.90;;;9.10;100.00;101572.84;5073693;28;19925;-63
2021/01/19 02:29:55;;;;;;;;;;;9.70;99.90;;;9.10;100.00;101565.56;5073885;28;19928;-64
2021/01/19 02:32:28;;;;;;;;;;;9.70;99.90;;;9.11;100.00;101574.50;5073147;28;19985;-64
2021/01/19 02:35:03;;;;;;;;;;;9.70;99.90;;;9.12;100.00;101570.72;5073636;28;19932;-64
2021/01/19 02:37:37;;;;;;;;;;;9.70;99.90;;;9.11;100.00;101569.09;5073374;28;19924;-63
2021/01/19 02:40:06;;;;;;;;;;;9.70;99.90;;;9.17;100.00;101566.16;5073714;28;20367;-63
2021/01/19 02:42:37;;;;;;;;;;;9.70;99.90;;;9.18;100.00;101559.66;5073100;28;19928;-65
2021/01/19 02:45:07;;;;;;;;;;;9.80;99.90;;;9.24;100.00;101557.84;5073958;28;19935;-65
2021/01/19 02:47:35;;;;;;;;;;;9.80;99.90;;;9.29;100.00;101555.16;5073213;28;19929;-63
2021/01/19 02:50:05;;;;;;;;;;;9.90;99.90;;;9.34;100.00;101553.28;5073379;28;19920;-65
2021/01/19 02:52:32;;;;;;;;;;;9.90;99.90;;;9.41;100.00;101550.34;5072922;28;19924;-64
2021/01/19 02:55:00;;;;;;;;;;;10.00;99.90;;;9.48;100.00;101544.69;5073571;28;19946;-63
2021/01/19 02:57:37;;;;;;;;;;;10.00;99.90;;;9.47;100.00;101551.97;5072997;28;20375;-65
2021/01/19 03:00:12;;;;;;;;;;;10.00;99.90;;;9.47;100.00;101551.97;5073415;28;20322;-65
2021/01/19 03:02:43;;;;;;;;;;;10.00;99.90;;;9.38;100.00;101548.16;5072684;28;20515;-65
2021/01/19 03:05:13;;;;;;;;;;;9.90;99.90;;;8.91;100.00;101550.88;5073424;28;19970;-65
2021/01/19 03:07:43;;;;;;;;;;;9.60;99.90;;;8.45;100.00;101549.75;5073061;28;19925;-65
2021/01/19 03:10:10;;;;;;;;;;;9.10;99.90;;;8.19;100.00;101548.72;5073088;28;19928;-64
2021/01/19 03:12:40;;;;;;;;;;;8.90;99.90;;;7.99;100.00;101550.41;5072684;28;20273;-64
2021/01/19 03:15:08;;;;;;;;;;;8.60;99.90;;;7.86;100.00;101550.81;5073060;28;19970;-64
2021/01/19 03:17:36;;;;;;;;;;;8.50;99.90;;;7.77;100.00;101537.00;5072695;28;19928;-65
2021/01/19 03:20:05;;;;;;;;;;;8.40;99.90;;;7.76;100.00;101539.94;5072808;28;19920;-65
2021/01/19 03:22:32;;;;;;;;;;;8.40;99.90;;;7.81;100.00;101534.63;5072617;28;19948;-64
2021/01/19 03:24:59;;;;;;;;;;;8.40;99.90;;;7.85;100.00;101541.91;5073035;28;19928;-65
2021/01/19 03:27:27;;;;;;;;;;;8.50;99.90;;;7.83;100.00;101541.38;5072513;28;19925;-64
2021/01/19 03:29:54;;;;;;;;;;;8.40;99.90;;;7.76;100.00;101546.13;5072573;28;19931;-65
2021/01/19 03:32:21;;;;;;;;;;;8.40;99.90;;;7.60;100.00;101536.25;5072324;28;19928;-64
2021/01/19 03:34:48;;;;;;;;;;;8.30;99.90;;;7.48;100.00;101536.41;5072777;28;20295;-65
2021/01/19 03:37:16;;;;;;;;;;;8.10;99.90;;;7.39;100.00;101540.59;5072468;28;20318;-65
2021/01/19 03:39:44;;;;;;;;;;;8.00;99.90;;;7.38;100.00;101543.56;5072535;28;19929;-65
2021/01/19 03:42:11;;;;;;;;;;;8.00;99.90;;;7.36;100.00;101534.91;5072111;28;19982;-64
2021/01/19 03:44:38;;;;;;;;;;;8.00;99.90;;;7.37;100.00;101528.47;5071729;28;19982;-65
2021/01/19 03:47:05;;;;;;;;;;;8.00;99.90;;;7.37;100.00;101526.59;5072173;28;19951;-65
2021/01/19 03:49:32;;;;;;;;;;;8.00;99.90;;;7.39;100.00;101524.44;5072293;28;19925;-65
2021/01/19 03:51:59;;;;;;;;;;;8.00;99.90;;;7.31;100.00;101524.91;5071967;28;19925;-64
2021/01/19 03:54:28;;;;;;;;;;;7.90;99.90;;;7.31;100.00;101522.22;5072534;28;19928;-64
2021/01/19 03:56:55;;;;;;;;;;;8.00;99.90;;;7.40;100.00;101526.09;5072040;28;20302;-64
2021/01/19 03:59:22;;;;;;;;;;;8.00;99.90;;;7.45;100.00;101518.06;5072319;28;20053;-64
2021/01/19 04:01:49;;;;;;;;;;;8.10;99.90;;;7.65;100.00;101521.00;5071836;28;19928;-64
2021/01/19 04:04:16;;;;;;;;;;;8.20;99.90;;;7.82;100.00;101514.69;5072367;28;19946;-65
2021/01/19 04:06:44;;;;;;;;;;;8.40;99.90;;;7.94;100.00;101513.47;5072003;28;19925;-64
2021/01/19 04:09:11;;;;;;;;;;;8.50;99.90;;;7.91;100.00;101505.06;5072496;28;19931;-65
2021/01/19 04:11:39;;;;;;;;;;;8.50;99.90;;;7.91;100.00;101515.84;5071607;28;20283;-64
2021/01/19 04:14:06;;;;;;;;;;;8.50;99.90;;;7.80;100.00;101506.88;5072277;28;19932;-65
2021/01/19 04:16:33;;;;;;;;;;;8.40;99.90;;;7.74;100.00;101504.38;5071871;28;19924;-64
2021/01/19 04:19:01;;;;;;;;;;;8.40;99.90;;;7.69;100.00;101503.25;5072243;28;20299;-64
2021/01/19 04:21:29;;;;;;;;;;;8.30;99.90;;;7.75;100.00;101501.44;5071592;28;19931;-65
2021/01/19 04:23:56;;;;;;;;;;;8.40;99.90;;;7.72;100.00;101490.38;5072073;28;19924;-64
2021/01/19 04:26:23;;;;;;;;;;;8.30;99.90;;;7.63;100.00;101493.50;5071696;28;19932;-64
2021/01/19 04:28:51;;;;;;;;;;;8.20;99.90;;;7.56;100.00;101492.91;5072333;28;19985;-64
2021/01/19 04:31:19;;;;;;;;;;;8.20;99.90;;;7.67;100.00;101491.94;5071500;28;19931;-64
2021/01/19 04:33:46;;;;;;;;;;;8.30;99.90;;;7.68;100.00;101490.06;5071764;28;19982;-65
2021/01/19 04:36:13;;;;;;;;;;;8.30;99.90;;;7.84;100.00;101494.53;5071763;28;19924;-65
2021/01/19 04:38:40;;;;;;;;;;;8.40;99.90;;;8.04;100.00;101491.19;5072001;28;19978;-65
2021/01/19 04:41:08;;;;;;;;;;;8.60;99.90;;;8.19;100.00;101494.03;5071590;28;19928;-65
2021/01/19 04:43:36;;;;;;;;;;;8.80;99.90;;;8.47;100.00;101482.13;5071725;28;19928;-64
2021/01/19 04:46:05;;;;;;;;;;;9.00;99.90;;;8.71;100.00;101483.38;5071706;28;20288;-65
2021/01/19 04:48:32;;;;;;;;;;;9.30;99.90;;;8.89;100.00;101491.00;5072087;28;19932;-65
2021/01/19 04:50:59;;;;;;;;;;;9.50;99.90;;;9.02;100.00;101476.25;5071284;28;20349;-65
2021/01/19 04:53:27;;;;;;;;;;;9.60;99.90;;;9.12;100.00;101479.00;5071647;28;19924;-64
2021/01/19 04:55:55;;;;;;;;;;;9.70;99.90;;;9.20;100.00;101476.59;5071822;28;19924;-64
2021/01/19 04:58:23;;;;;;;;;;;9.80;99.90;;;9.29;100.00;101469.59;5075609;28;19931;-65
2021/01/19 05:01:06;;;;;;;;;;;9.90;99.90;;;9.39;100.00;101470.72;5075294;28;20444;-65
2021/01/19 05:03:41;;;;;;;;;;;10.00;99.90;;;9.40;100.00;101473.13;5075304;28;19977;-65
2021/01/19 05:06:23;;;;;;;;;;;10.00;99.90;;;9.42;100.00;101479.09;5075169;28;19929;-65
2021/01/19 05:08:58;;;;;;;;;;;10.00;99.90;;;9.41;100.00;101479.34;5075736;28;19931;-65
2021/01/19 05:11:29;;;;;;;;;;;10.00;99.90;;;9.45;100.00;101466.94;5075057;28;20391;-65
2021/01/19 05:14:01;;;;;;;;;;;10.10;99.90;;;9.51;100.00;101464.00;5075112;28;19925;-64
2021/01/19 05:16:31;;;;;;;;;;;10.10;99.90;;;9.53;100.00;101455.63;5075043;28;19929;-65
2021/01/19 05:18:59;;;;;;;;;;;10.10;99.90;;;9.55;100.00;101450.75;5075589;28;19978;-64
2021/01/19 05:21:26;;;;;;;;;;;10.10;99.90;;;9.54;100.00;101449.97;5074646;28;20379;-65
2021/01/19 05:23:55;;;;;;;;;;;10.10;99.90;;;9.51;100.00;101449.69;5075085;28;19925;-65
2021/01/19 05:26:22;;;;;;;;;;;10.10;99.90;;;9.55;100.00;101445.34;5074911;28;19924;-65
2021/01/19 05:28:50;;;;;;;;;;;10.10;99.90;;;9.57;100.00;101445.91;5075385;28;20438;-65
2021/01/19 05:31:24;;;;;;;;;;;10.20;99.90;;;9.61;100.00;101446.97;5074553;28;19925;-65
2021/01/19 05:34:06;;;;;;;;;;;10.20;99.90;;;9.67;100.00;101441.31;5074972;28;19928;-65
2021/01/19 05:36:36;;;;;;;;;;;10.20;99.90;;;9.76;100.00;101441.59;5074607;28;20041;-65
2021/01/19 05:39:04;;;;;;;;;;;10.40;99.90;;;9.80;100.00;101451.59;5075219;28;19924;-65
2021/01/19 05:41:35;;;;;;;;;;;10.40;99.90;;;9.86;100.00;101430.81;5074423;28;19928;-65
2021/01/19 05:44:22;;;;;;;;;;;10.40;99.90;;;9.92;100.00;101428.91;5074722;28;19925;-65
2021/01/19 05:46:52;;;;;;;;;;;10.50;99.90;;;9.95;100.00;101420.25;5074605;28;19936;-65
2021/01/19 05:49:23;;;;;;;;;;;10.50;99.90;;;9.93;100.00;101419.72;5074851;28;19932;-65
2021/01/19 05:51:51;;;;;;;;;;;10.50;99.90;;;9.93;100.00;101409.75;5074177;28;19928;-65
2021/01/19 05:54:23;;;;;;;;;;;10.50;99.90;;;9.82;100.00;101397.31;5074750;28;19936;-65
2021/01/19 05:56:51;;;;;;;;;;;10.40;99.90;;;9.79;100.00;101420.25;5074376;28;20299;-65
2021/01/19 05:59:37;;;;;;;;;;;10.40;99.90;;;9.75;100.00;101415.69;5074788;28;19924;-65
2021/01/19 06:02:09;;;;;;;;;;;10.30;99.90;;;9.71;100.00;101428.91;5073946;28;19977;-65
2021/01/19 06:04:39;;;;;;;;;;;10.30;99.90;;;9.69;100.00;101424.88;5074782;28;19924;-64
2021/01/19 06:07:07;;;;;;;;;;;10.30;99.90;;;9.62;100.00;101419.72;5074095;28;20387;-65
2021/01/19 06:09:34;;;;;;;;;;;10.20;99.90;;;9.54;100.00;101412.16;5073401;28;19924;-65
2021/01/19 06:12:02;;;;;;;;;;;10.10;99.90;;;9.47;100.00;101414.31;5073979;28;19978;-65
2021/01/19 06:14:30;;;;;;;;;;;10.00;99.90;;;9.38;100.00;101424.00;5074322;28;19928;-65
2021/01/19 06:17:07;;;;;;;;;;;10.00;99.90;;;9.30;100.00;101441.53;5073926;28;19947;-65
2021/01/19 06:19:35;;;;;;;;;;;9.90;99.90;;;9.33;100.00;101454.47;5074270;28;19929;-64
2021/01/19 06:22:08;;;;;;;;;;;9.90;99.90;;;9.34;100.00;101458.00;5073667;28;20337;-65
2021/01/19 06:24:37;;;;;;;;;;;9.90;99.90;;;9.30;100.00;101454.22;5074215;28;19924;-65
2021/01/19 06:27:05;;;;;;;;;;;9.90;99.90;;;9.20;100.00;101440.69;5073638;28;19925;-65
2021/01/19 06:29:33;;;;;;;;;;;9.80;99.90;;;9.09;100.00;101442.53;5074341;28;19924;-65
2021/01/19 06:32:01;;;;;;;;;;;9.70;99.90;;;8.94;100.00;101465.94;5073417;28;19924;-65
2021/01/19 06:34:31;;;;;;;;;;;9.50;99.90;;;8.73;100.00;101473.13;5074019;28;19924;-64
2021/01/19 06:36:59;;;;;;;;;;;9.40;99.90;;;8.55;100.00;101484.34;5073441;28;20291;-65
2021/01/19 06:39:31;;;;;;;;;;;9.20;99.90;;;8.46;100.00;101484.00;5073924;28;19935;-65
2021/01/19 06:42:10;;;;;;;;;;;9.10;99.90;;;8.44;100.00;101486.16;5073420;28;20345;-65
2021/01/19 06:44:45;;;;;;;;;;;9.10;99.90;;;8.50;100.00;101478.91;5073845;28;19935;-64
2021/01/19 06:47:14;;;;;;;;;;;9.10;99.90;;;8.49;100.00;101470.00;5073280;28;19932;-65
2021/01/19 06:49:42;;;;;;;;;;;9.10;99.90;;;8.50;100.00;101468.97;5073389;28;19928;-65
2021/01/19 06:52:11;;;;;;;;;;;9.20;99.90;;;8.47;100.00;101472.16;5073072;28;19924;-64
2021/01/19 06:55:03;;;;;;;;;;;9.10;99.90;;;8.49;100.00;101480.81;5073639;28;19946;-65
2021/01/19 06:57:39;;;;;;;;;;;9.10;99.90;;;8.52;100.00;101490.25;5073011;28;19932;-65
2021/01/19 07:00:09;;;;;;;;;;;9.20;99.90;;;8.57;100.00;101501.88;5073258;28;19921;-65
2021/01/19 07:02:38;;;;;;;;;;;9.20;99.90;;;8.60;100.00;101501.34;5072630;28;19929;-65
2021/01/19 07:05:10;;;;;;;;;;;9.20;99.90;;;8.67;100.00;101503.81;5073683;28;19951;-65
2021/01/19 07:07:43;;;;;;;;;;;9.30;99.90;;;8.73;100.00;101509.00;5072884;28;19936;-65
2021/01/19 07:10:16;;;;;;;;;;;9.40;99.90;;;8.84;100.00;101503.66;5073077;28;19925;-65
2021/01/19 07:13:04;;;;;;;;;;;9.40;99.90;;;8.91;100.00;101502.34;5072555;28;20372;-65
2021/01/19 07:16:07;;;;;;;;;;;9.50;99.90;;;8.97;100.00;101498.59;5073434;28;19931;-65
2021/01/19 07:19:04;;;;;;;;;;;9.60;99.90;;;9.25;100.00;101508.16;5073126;28;19929;-64
2021/01/19 07:21:54;;;;;;;;;;;9.80;99.90;;;9.51;100.00;101501.78;5072375;28;19928;-64
2021/01/19 07:24:22;;;;;;;;;;;10.10;99.90;;;9.70;100.00;101497.50;5072999;28;19994;-63
2021/01/19 07:26:53;;;;;;;;;;;10.30;99.90;;;9.83;100.00;101490.78;5072610;28;20485;-63
2021/01/19 07:29:21;;;;;;;;;;;10.40;99.90;;;9.96;100.00;101490.25;5072790;28;20022;-63
2021/01/19 07:31:48;;;;;;;;;;;10.50;99.90;;;10.07;100.00;101480.25;5072291;28;20367;-63
2021/01/19 07:34:17;;;;;;;;;;;10.60;99.90;;;10.19;100.00;101478.13;5072574;28;19925;-63
2021/01/19 07:36:53;;;;;;;;;;;10.70;99.90;;;10.25;100.00;101482.44;5072365;28;19935;-63
2021/01/19 07:39:21;;;;;;;;;;;10.80;99.90;;;10.29;100.00;101472.72;5072710;28;20023;-63
2021/01/19 07:41:49;;;;;;;;;;;10.80;99.90;;;10.36;100.00;101467.84;5072099;28;19932;-63
2021/01/19 07:44:22;;;;;;;;;;;10.90;99.90;;;10.39;100.00;101480.81;5072424;28;20264;-64
2021/01/19 07:46:49;;;;;;;;;;;11.00;99.90;;;10.42;100.00;101482.97;5072256;28;20099;-63
2021/01/19 07:49:17;;;;;;;;;;;11.00;99.90;;;10.41;100.00;101482.16;5072516;28;19928;-63
2021/01/19 07:51:45;;;;;;;;;;;11.00;99.90;;;10.40;100.00;101490.53;5072408;28;19924;-64
2021/01/19 07:54:14;;;;;;;;;;;11.00;99.90;;;10.40;100.00;101490.53;5072339;28;19931;-64
2021/01/19 07:56:41;;;;;;;;;;;11.00;99.90;;;10.40;100.00;101483.22;5072248;28;19924;-64
2021/01/19 07:59:16;;;;;;;;;;;11.00;99.90;;;10.43;100.00;101480.00;5072409;28;19924;-64
2021/01/19 08:01:54;;;;;;;;;;;11.10;99.90;;;10.48;100.00;101479.19;5072234;28;20338;-64
2021/01/19 08:04:28;;;;;;;;;;;11.10;99.90;;;10.53;100.00;101472.94;5072399;28;19925;-64
2021/01/19 08:06:55;;;;;;;;;;;11.10;99.90;;;10.56;100.00;101467.00;5071991;28;19924;-64
2021/01/19 08:09:23;;;;;;;;;;;11.10;99.90;;;10.56;100.00;101467.81;5072276;28;19928;-64
2021/01/19 08:12:04;;;;;;;;;;;11.20;99.90;;;10.57;99.94;101471.31;5072201;28;19932;-64
2021/01/19 08:14:36;;;;;;;;;;;11.20;99.90;;;10.57;100.00;101469.44;5072313;28;20023;-64
2021/01/19 08:17:07;;;;;;;;;;;11.20;99.90;;;10.61;100.00;101450.78;5071983;28;19924;-64
2021/01/19 08:19:39;;;;;;;;;;;11.20;99.90;;;10.63;99.31;101462.94;5071856;28;20360;-63
2021/01/19 08:22:06;;;;;;;;;;;11.20;99.90;;;10.65;99.08;101466.16;5072045;28;19928;-63
2021/01/19 08:24:33;;;;;;;;;;;11.20;99.90;;;10.69;99.20;101471.84;5072155;28;19932;-63
2021/01/19 08:27:01;;;;;;;;;;;11.30;99.90;;;10.68;99.03;101459.38;5071811;28;19932;-63
2021/01/19 08:29:29;;;;;;;;;;;11.30;99.90;;;10.69;99.36;101471.84;5071976;28;19931;-63
2021/01/19 08:31:58;;;;;;;;;;;11.30;99.90;;;10.71;99.16;101465.06;5073628;28;19932;-64
2021/01/19 08:34:26;;;;;;;;;;;11.30;99.90;;;10.77;98.92;101463.97;5076087;28;19924;-64
2021/01/19 08:36:55;;;;;;;;;;;11.40;99.90;;;10.80;98.98;101466.13;5075909;28;19925;-64
2021/01/19 08:39:22;;;;;;;;;;;11.40;99.90;;;10.82;98.77;101461.22;5075737;28;19924;-63
2021/01/19 08:41:51;;;;;;;;;;;11.40;99.90;;;10.88;98.90;101467.47;5075826;28;19929;-64
2021/01/19 08:44:18;;;;;;;;;;;11.50;99.90;;;10.92;98.93;101471.22;5075828;28;19924;-64
2021/01/19 08:46:46;;;;;;;;;;;11.50;99.90;;;10.95;98.38;101476.88;5075665;28;20291;-64
2021/01/19 08:49:16;;;;;;;;;;;11.50;99.90;;;11.00;98.71;101477.97;5075842;28;19925;-63
2021/01/19 08:51:47;;;;;;;;;;;11.60;99.90;;;11.06;98.43;101482.28;5075654;28;19954;-64
2021/01/19 08:54:14;;;;;;;;;;;11.60;99.90;;;11.14;97.71;101473.56;5075659;28;19928;-64
2021/01/19 08:56:42;;;;;;;;;;;11.70;99.90;;;11.20;97.55;101475.97;5075333;28;19936;-64
2021/01/19 08:59:12;;;;;;;;;;;11.80;99.90;;;11.27;97.76;101479.19;5075636;28;19935;-64
2021/01/19 09:01:48;;;;;;;;;;;11.80;99.90;;;11.31;97.77;101485.66;5075324;28;20023;-64
2021/01/19 09:04:22;;;;;;;;;;;11.90;99.90;;;11.35;97.74;101485.91;5075573;28;19960;-63
2021/01/19 09:06:50;;;;;;;;;;;11.90;99.90;;;11.34;97.65;101487.81;5075409;28;19974;-63
2021/01/19 09:09:20;;;;;;;;;;;11.90;99.90;;;11.34;97.97;101492.41;5075321;28;19924;-63
2021/01/19 09:11:48;;;;;;;;;;;11.90;99.90;;;11.34;98.15;101492.41;5075214;28;19932;-65
2021/01/19 09:14:15;;;;;;;;;;;11.90;99.90;;;11.34;97.59;101500.53;5075244;28;19924;-63
2021/01/19 09:16:42;;;;;;;;;;;11.90;99.90;;;11.33;98.07;101501.66;5075033;28;20276;-64
2021/01/19 09:19:11;;;;;;;;;;;11.90;99.90;;;11.35;97.69;101500.28;5075355;28;20414;-63
2021/01/19 09:21:39;;;;;;;;;;;12.00;99.90;;;11.39;97.67;101503.25;5074692;28;20268;-63
2021/01/19 09:24:13;;;;;;;;;;;12.00;99.90;;;11.44;97.87;101503.19;5074893;28;19924;-63
2021/01/19 09:26:56;;;;;;;;;;;12.00;99.90;;;11.45;97.22;101502.94;5075066;28;19925;-64
2021/01/19 09:29:24;;;;;;;;;;;12.10;99.90;;;11.47;96.72;101494.53;5075349;28;20448;-64
2021/01/19 09:31:51;;;;;;;;;;;12.10;99.90;;;11.50;96.38;101489.38;5074665;28;20345;-64
2021/01/19 09:34:20;;;;;;;;;;;12.10;99.90;;;11.52;96.03;101492.59;5074867;28;19931;-64
2021/01/19 09:36:49;;;;;;;;;;;12.10;99.90;;;11.52;96.27;101491.78;5074764;28;19924;-64
2021/01/19 09:39:24;;;;;;;;;;;12.10;99.90;;;11.56;96.09;101489.31;5074912;28;20269;-64
2021/01/19 09:41:52;;;;;;;;;;;12.10;99.90;;;11.58;95.84;101484.47;5074542;28;20316;-64
2021/01/19 09:44:19;;;;;;;;;;;12.20;99.90;;;11.61;96.48;101490.09;5074782;28;20423;-64
2021/01/19 09:46:52;;;;;;;;;;;12.20;99.90;;;11.69;96.09;101489.53;5074736;28;19924;-64
2021/01/19 09:49:20;;;;;;;;;;;12.30;99.90;;;11.83;95.73;101492.44;5074889;28;19933;-64
2021/01/19 09:51:49;;;;;;;;;;;12.40;99.90;;;11.98;94.92;101500.44;5074480;28;19924;-64
2021/01/19 09:54:22;;;;;;;;;;;12.50;99.90;;;12.15;94.63;101510.91;5074505;28;19932;-63
2021/01/19 09:56:55;;;;;;;;;;;12.70;99.90;;;12.22;93.82;101512.19;5074292;28;20295;-64
2021/01/19 09:59:26;;;;;;;;;;;12.70;99.90;;;12.33;92.71;101512.94;5073882;28;20241;-63
2021/01/19 10:01:54;;;;;;;;;;;12.80;99.90;;;12.38;92.64;101510.97;5073940;28;20295;-63
2021/01/19 10:04:21;;;;;;;;;;;12.90;99.90;;;12.44;92.40;101500.88;5074573;28;19924;-63
2021/01/19 10:07:00;;;;;;;;;;;13.00;99.90;;;12.54;91.71;101500.81;5074240;28;20279;-64
2021/01/19 10:09:27;;;;;;;;;;;13.00;99.90;;;12.67;91.59;101493.91;5074529;28;19924;-64
2021/01/19 10:11:58;;;;;;;;;;;13.10;99.90;;;12.76;91.15;101494.88;5073868;28;19932;-65
2021/01/19 10:14:32;;;;;;;;;;;13.30;99.90;;;12.83;90.17;101489.91;5074132;28;19924;-64
2021/01/19 10:16:59;;;;;;;;;;;13.30;99.90;;;12.89;90.31;101491.47;5074055;28;19925;-63
2021/01/19 10:19:28;;;;;;;;;;;13.40;99.90;;;12.96;89.57;101494.66;5074274;28;20255;-63
2021/01/19 10:21:57;;;;;;;;;;;13.50;99.90;;;13.00;89.63;101499.22;5073714;28;20299;-63
2021/01/19 10:24:25;;;;;;;;;;;13.50;99.90;;;13.06;89.29;101508.94;5073905;28;20018;-65
2021/01/19 10:27:01;;;;;;;;;;;13.50;99.90;;;13.07;88.48;101505.09;5073806;28;19935;-63
2021/01/19 10:29:30;;;;;;;;;;;13.60;99.90;;;13.10;89.24;101515.41;5074207;28;19924;-63
2021/01/19 10:32:00;;;;;;;;;;;13.60;99.90;;;13.11;88.67;101514.31;5073659;28;19994;-65
2021/01/19 10:34:28;;;;;;;;;;;13.60;99.90;;;13.14;88.33;101511.03;5074020;28;19931;-65
2021/01/19 10:36:57;;;;;;;;;;;13.70;99.90;;;13.21;88.94;101507.97;5073666;28;20005;-65
2021/01/19 10:39:24;;;;;;;;;;;13.70;99.90;;;13.24;88.67;101507.38;5073771;28;20312;-63
2021/01/19 10:41:52;;;;;;;;;;;13.80;99.90;;;13.29;88.53;101510.03;5073396;28;19928;-65
2021/01/19 10:44:21;;;;;;;;;;;13.80;99.90;;;13.32;88.84;101497.75;5073581;28;19924;-65
2021/01/19 10:46:56;;;;;;;;;;;13.80;99.90;;;13.39;87.20;101503.66;5073511;28;19968;-65
2021/01/19 10:49:27;;;;;;;;;;;13.90;99.90;;;13.46;87.75;101499.50;5073572;28;19924;-65
2021/01/19 10:51:55;;;;;;;;;;;14.00;99.90;;;13.53;86.57;101493.69;5073194;28;19932;-66
2021/01/19 10:54:24;;;;;;;;;;;14.00;99.90;;;13.56;85.48;101496.63;5072825;28;19932;-63
2021/01/19 10:57:02;;;;;;;;;;;14.00;99.90;;;13.60;85.33;101494.94;5073124;28;19978;-65
2021/01/19 10:59:30;;;;;;;;;;;14.10;99.90;;;13.67;85.57;101487.25;5073471;28;19970;-65
2021/01/19 11:01:57;;;;;;;;;;;14.10;99.90;;;13.75;83.83;101491.19;5072811;28;19925;-63
2021/01/19 11:04:25;;;;;;;;;;;14.20;99.90;;;13.83;84.20;101481.59;5073169;28;19925;-63
2021/01/19 11:06:52;;;;;;;;;;;14.30;99.90;;;13.93;84.89;101482.22;5073001;28;20287;-63
2021/01/19 11:09:20;;;;;;;;;;;14.40;99.90;;;14.04;83.03;101472.00;5073443;28;19924;-63
2021/01/19 11:11:48;;;;;;;;;;;14.50;99.90;;;14.12;82.91;101463.97;5072584;28;19928;-64
2021/01/19 11:14:15;;;;;;;;;;;14.60;99.90;;;14.25;82.99;101459.69;5072768;28;19924;-63
2021/01/19 11:16:43;;;;;;;;;;;14.70;99.90;;;14.29;81.71;101447.06;5072645;28;19928;-63
2021/01/19 11:19:11;;;;;;;;;;;14.70;99.90;;;14.38;81.30;101439.84;5073188;28;19936;-64
2021/01/19 11:21:41;;;;;;;;;;;14.80;99.90;;;14.53;80.77;101441.53;5072435;28;19946;-64
2021/01/19 11:24:09;;;;;;;;;;;14.90;99.90;;;14.67;79.33;101436.88;5072594;28;19932;-64